createdAt,value
2019-01-30T00:00:07.368Z,15.70
2019-01-30T00:01:07.381Z,13.50
2019-01-30T00:02:07.371Z,13.80
2019-01-30T00:03:07.376Z,16.40
2019-01-30T00:04:07.375Z,18.10
2019-01-30T00:05:07.370Z,13.20
2019-01-30T00:06:07.369Z,18.00
2019-01-30T00:07:07.369Z,20.70
2019-01-30T00:08:07.368Z,14.90
2019-01-30T00:09:07.361Z,16.90
2019-01-30T00:10:07.368Z,18.60
2019-01-30T00:11:07.361Z,17.00
2019-01-30T00:12:09.659Z,12.80
2019-01-30T00:13:07.364Z,17.20
2019-01-30T00:14:07.374Z,19.20
2019-01-30T00:15:07.367Z,15.60
2019-01-30T00:16:07.371Z,17.30
2019-01-30T00:17:07.368Z,18.70
2019-01-30T00:18:07.367Z,17.00
2019-01-30T00:19:07.365Z,15.30
2019-01-30T00:20:07.370Z,17.70
2019-01-30T00:21:07.382Z,16.80
2019-01-30T00:22:07.365Z,17.60
2019-01-30T00:23:07.360Z,17.50
2019-01-30T00:24:07.366Z,15.50
2019-01-30T00:25:07.368Z,16.60
2019-01-30T00:26:07.371Z,17.20
2019-01-30T00:27:07.386Z,16.70
2019-01-30T00:28:07.365Z,18.80
2019-01-30T00:29:07.365Z,18.50
2019-01-30T00:30:07.369Z,17.00
2019-01-30T00:31:07.372Z,14.80
2019-01-30T00:32:07.365Z,17.20
2019-01-30T00:33:07.362Z,19.30
2019-01-30T00:34:07.366Z,17.10
2019-01-30T00:35:07.364Z,17.10
2019-01-30T00:36:07.370Z,15.40
2019-01-30T00:37:07.368Z,17.10
2019-01-30T00:38:07.365Z,17.30
2019-01-30T00:39:07.355Z,22.40
2019-01-30T00:40:07.364Z,16.70
2019-01-30T00:41:07.369Z,17.10
2019-01-30T00:42:07.364Z,19.50
2019-01-30T00:43:07.425Z,19.10
2019-01-30T00:44:07.372Z,16.40
2019-01-30T00:45:07.377Z,18.00
2019-01-30T00:46:07.361Z,17.20
2019-01-30T00:47:15.826Z,14.90
2019-01-30T00:48:07.366Z,14.70
2019-01-30T00:49:07.383Z,19.20
2019-01-30T00:50:07.369Z,17.20
2019-01-30T00:51:07.391Z,17.40
2019-01-30T00:52:07.374Z,17.20
2019-01-30T00:53:07.368Z,15.80
2019-01-30T00:54:07.374Z,15.80
2019-01-30T00:55:07.360Z,20.10
2019-01-30T00:56:07.412Z,15.60
2019-01-30T00:57:07.367Z,19.30
2019-01-30T00:58:07.373Z,16.60
2019-01-30T00:59:07.365Z,17.30
2019-01-30T01:00:14.351Z,17.40
2019-01-30T01:01:07.359Z,15.90
2019-01-30T01:02:07.371Z,20.30
2019-01-30T01:03:07.365Z,16.80
2019-01-30T01:04:07.364Z,19.70
2019-01-30T01:05:07.372Z,19.00
2019-01-30T01:06:07.388Z,18.90
2019-01-30T01:07:07.357Z,18.60
2019-01-30T01:08:07.367Z,19.60
2019-01-30T01:09:07.370Z,17.30
2019-01-30T01:10:07.361Z,19.80
2019-01-30T01:11:07.356Z,19.50
2019-01-30T01:12:07.367Z,20.40
2019-01-30T01:13:07.364Z,21.30
2019-01-30T01:14:07.365Z,25.50
2019-01-30T01:15:07.354Z,20.40
2019-01-30T01:16:07.359Z,18.50
2019-01-30T01:17:07.364Z,19.10
2019-01-30T01:18:07.370Z,18.30
2019-01-30T01:19:07.365Z,17.60
2019-01-30T01:20:07.375Z,17.80
2019-01-30T01:21:07.372Z,18.80
2019-01-30T01:22:07.362Z,18.30
2019-01-30T01:23:07.377Z,17.20
2019-01-30T01:24:07.362Z,20.30
2019-01-30T01:25:07.368Z,19.20
2019-01-30T01:26:07.368Z,20.60
2019-01-30T01:27:07.359Z,23.20
2019-01-30T01:28:07.359Z,20.00
2019-01-30T01:29:07.367Z,22.40
2019-01-30T01:30:07.359Z,19.60
2019-01-30T01:31:07.356Z,17.80
2019-01-30T01:32:07.356Z,17.20
2019-01-30T01:33:07.364Z,20.30
2019-01-30T01:34:07.361Z,17.20
2019-01-30T01:35:07.371Z,17.30
2019-01-30T01:36:07.363Z,21.20
2019-01-30T01:37:07.367Z,16.40
2019-01-30T01:38:07.378Z,20.60
2019-01-30T01:39:07.364Z,15.50
2019-01-30T01:40:07.374Z,18.50
2019-01-30T01:41:07.360Z,16.40
2019-01-30T01:42:07.372Z,17.90
2019-01-30T01:43:07.365Z,18.30
2019-01-30T01:44:07.358Z,16.60
2019-01-30T01:45:07.364Z,16.80
2019-01-30T01:46:07.364Z,16.40
2019-01-30T01:47:07.378Z,18.40
2019-01-30T01:48:07.358Z,15.90
2019-01-30T01:49:07.366Z,16.80
2019-01-30T01:50:07.365Z,15.20
2019-01-30T01:51:07.369Z,13.70
2019-01-30T01:52:07.476Z,19.00
2019-01-30T01:53:07.364Z,15.20
2019-01-30T01:54:07.372Z,14.90
2019-01-30T01:55:07.367Z,15.70
2019-01-30T01:56:07.372Z,14.60
2019-01-30T01:57:07.364Z,13.80
2019-01-30T01:58:07.360Z,13.60
2019-01-30T01:59:07.367Z,12.50
2019-01-30T02:00:07.369Z,17.20
2019-01-30T02:01:07.368Z,15.20
2019-01-30T02:02:07.359Z,14.90
2019-01-30T02:03:07.362Z,12.50
2019-01-30T02:04:07.378Z,12.60
2019-01-30T02:05:07.377Z,13.40
2019-01-30T02:06:07.364Z,14.30
2019-01-30T02:07:07.390Z,15.20
2019-01-30T02:08:07.372Z,13.60
2019-01-30T02:09:07.367Z,13.80
2019-01-30T02:10:07.393Z,13.80
2019-01-30T02:11:07.362Z,12.70
2019-01-30T02:12:07.356Z,13.00
2019-01-30T02:13:07.363Z,14.40
2019-01-30T02:14:07.369Z,13.70
2019-01-30T02:15:07.378Z,16.10
2019-01-30T02:16:07.353Z,16.10
2019-01-30T02:17:07.370Z,17.00
2019-01-30T02:18:08.574Z,15.40
2019-01-30T02:19:07.359Z,14.40
2019-01-30T02:20:07.374Z,16.20
2019-01-30T02:21:07.368Z,15.30
2019-01-30T02:22:07.365Z,15.50
2019-01-30T02:23:07.428Z,15.00
2019-01-30T02:24:07.355Z,14.30
2019-01-30T02:25:07.362Z,15.10
2019-01-30T02:26:07.362Z,14.80
2019-01-30T02:27:07.360Z,17.30
2019-01-30T02:28:07.361Z,15.40
2019-01-30T02:29:07.371Z,13.90
2019-01-30T02:30:07.366Z,15.80
2019-01-30T02:31:07.361Z,14.70
2019-01-30T02:32:07.362Z,15.80
2019-01-30T02:33:07.363Z,12.70
2019-01-30T02:34:07.374Z,15.20
2019-01-30T02:35:07.368Z,12.50
2019-01-30T02:36:07.368Z,14.60
2019-01-30T02:37:07.366Z,15.20
2019-01-30T02:38:07.357Z,15.90
2019-01-30T02:39:07.363Z,14.90
2019-01-30T02:40:07.365Z,14.90
2019-01-30T02:41:07.352Z,16.00
2019-01-30T02:42:07.353Z,13.90
2019-01-30T02:44:07.382Z,13.50
2019-01-30T02:45:07.367Z,14.40
2019-01-30T02:46:07.355Z,14.70
2019-01-30T02:47:07.362Z,18.60
2019-01-30T02:48:07.374Z,15.70
2019-01-30T02:49:07.378Z,15.90
2019-01-30T02:50:07.360Z,16.00
2019-01-30T02:51:07.362Z,16.90
2019-01-30T02:52:07.367Z,15.90
2019-01-30T02:53:07.365Z,17.00
2019-01-30T02:54:07.363Z,15.90
2019-01-30T02:55:07.366Z,14.70
2019-01-30T02:56:07.359Z,16.70
2019-01-30T02:57:07.362Z,17.50
2019-01-30T02:58:07.360Z,16.20
2019-01-30T02:59:07.353Z,15.20
2019-01-30T03:00:07.366Z,17.50
2019-01-30T03:01:07.369Z,14.20
2019-01-30T03:02:07.362Z,15.20
2019-01-30T03:04:07.364Z,14.20
2019-01-30T03:05:07.349Z,12.70
2019-01-30T03:06:07.367Z,15.60
2019-01-30T03:07:07.357Z,15.60
2019-01-30T03:08:07.353Z,15.90
2019-01-30T03:09:07.359Z,17.20
2019-01-30T03:10:07.372Z,16.60
2019-01-30T03:11:07.347Z,17.20
2019-01-30T03:12:07.350Z,16.60
2019-01-30T03:13:07.353Z,19.50
2019-01-30T03:14:07.353Z,18.20
2019-01-30T03:15:07.350Z,15.30
2019-01-30T03:16:07.362Z,16.20
2019-01-30T03:17:07.372Z,16.30
2019-01-30T03:18:07.360Z,17.50
2019-01-30T03:19:07.350Z,15.50
2019-01-30T03:20:07.358Z,16.00
2019-01-30T03:21:07.365Z,15.70
2019-01-30T03:22:07.348Z,16.90
2019-01-30T03:23:07.374Z,15.20
2019-01-30T03:24:07.359Z,14.00
2019-01-30T03:25:07.357Z,18.40
2019-01-30T03:26:07.348Z,18.60
2019-01-30T03:27:07.350Z,17.70
2019-01-30T03:28:07.349Z,17.10
2019-01-30T03:29:07.357Z,19.40
2019-01-30T03:30:07.359Z,19.00
2019-01-30T03:31:17.485Z,15.40
2019-01-30T03:32:07.372Z,18.50
2019-01-30T03:33:07.369Z,17.00
2019-01-30T03:34:07.353Z,15.50
2019-01-30T03:35:07.347Z,16.90
2019-01-30T03:36:07.372Z,17.00
2019-01-30T03:37:07.350Z,17.90
2019-01-30T03:38:07.359Z,16.00
2019-01-30T03:39:07.346Z,14.80
2019-01-30T03:40:07.340Z,15.60
2019-01-30T03:41:07.353Z,16.20
2019-01-30T03:42:07.355Z,17.20
2019-01-30T03:43:07.353Z,15.80
2019-01-30T03:44:07.359Z,14.80
2019-01-30T03:45:07.354Z,15.70
2019-01-30T03:46:07.353Z,15.90
2019-01-30T03:47:07.411Z,17.30
2019-01-30T03:48:07.415Z,15.00
2019-01-30T03:49:07.353Z,14.60
2019-01-30T03:50:07.353Z,14.60
2019-01-30T03:51:07.356Z,14.70
2019-01-30T03:52:07.359Z,12.20
2019-01-30T03:53:07.352Z,19.90
2019-01-30T03:54:07.350Z,14.50
2019-01-30T03:55:07.353Z,16.30
2019-01-30T03:56:07.348Z,18.00
2019-01-30T03:57:07.357Z,16.50
2019-01-30T03:58:07.359Z,17.70
2019-01-30T03:59:07.347Z,12.80
2019-01-30T04:00:07.358Z,14.90
2019-01-30T04:01:07.352Z,14.80
2019-01-30T04:02:07.354Z,16.50
2019-01-30T04:03:07.361Z,16.70
2019-01-30T04:04:07.355Z,15.70
2019-01-30T04:05:07.357Z,16.30
2019-01-30T04:06:07.343Z,15.60
2019-01-30T04:07:07.350Z,14.00
2019-01-30T04:08:07.342Z,13.50
2019-01-30T04:09:07.350Z,14.10
2019-01-30T04:10:07.347Z,17.60
2019-01-30T04:11:07.357Z,14.60
2019-01-30T04:12:07.361Z,14.90
2019-01-30T04:13:07.364Z,15.00
2019-01-30T04:14:07.348Z,15.50
2019-01-30T04:15:07.355Z,15.70
2019-01-30T04:16:07.347Z,14.60
2019-01-30T04:17:07.353Z,14.90
2019-01-30T04:18:07.350Z,12.80
2019-01-30T04:19:07.349Z,15.10
2019-01-30T04:20:07.350Z,12.40
2019-01-30T04:21:07.347Z,15.30
2019-01-30T04:22:07.351Z,12.80
2019-01-30T04:23:07.349Z,12.70
2019-01-30T04:24:07.340Z,15.30
2019-01-30T04:25:07.346Z,12.70
2019-01-30T04:26:07.347Z,16.50
2019-01-30T04:27:07.341Z,13.50
2019-01-30T04:28:07.340Z,13.90
2019-01-30T04:29:07.344Z,13.20
2019-01-30T04:30:07.337Z,16.90
2019-01-30T04:31:07.340Z,13.80
2019-01-30T04:32:07.340Z,16.00
2019-01-30T04:33:07.342Z,14.90
2019-01-30T04:34:07.343Z,13.60
2019-01-30T04:35:07.336Z,15.30
2019-01-30T04:36:07.344Z,15.60
2019-01-30T04:37:07.343Z,13.70
2019-01-30T04:38:07.340Z,14.20
2019-01-30T04:39:07.335Z,12.80
2019-01-30T04:40:07.346Z,12.60
2019-01-30T04:41:07.343Z,12.40
2019-01-30T04:42:07.347Z,15.00
2019-01-30T04:43:07.348Z,13.60
2019-01-30T04:44:07.344Z,13.90
2019-01-30T04:45:07.337Z,12.70
2019-01-30T04:46:07.343Z,14.20
2019-01-30T04:47:07.340Z,12.10
2019-01-30T04:48:07.344Z,13.00
2019-01-30T04:49:07.343Z,11.60
2019-01-30T04:50:07.337Z,14.50
2019-01-30T04:51:07.341Z,13.10
2019-01-30T04:52:07.338Z,14.70
2019-01-30T04:53:07.337Z,15.50
2019-01-30T04:54:07.425Z,14.90
2019-01-30T04:55:07.331Z,14.00
2019-01-30T04:56:07.341Z,12.60
2019-01-30T04:57:07.346Z,12.90
2019-01-30T04:58:07.334Z,15.90
2019-01-30T04:59:07.340Z,13.50
2019-01-30T05:00:07.337Z,14.20
2019-01-30T05:01:07.355Z,11.60
2019-01-30T05:02:07.342Z,12.70
2019-01-30T05:03:07.343Z,15.70
2019-01-30T05:04:07.337Z,13.90
2019-01-30T05:05:07.336Z,13.40
2019-01-30T05:06:07.357Z,12.00
2019-01-30T05:07:07.333Z,15.50
2019-01-30T05:08:07.340Z,14.50
2019-01-30T05:09:07.334Z,13.80
2019-01-30T05:10:07.339Z,15.50
2019-01-30T05:11:07.335Z,11.60
2019-01-30T05:12:07.340Z,13.50
2019-01-30T05:13:07.338Z,12.60
2019-01-30T05:14:07.347Z,15.80
2019-01-30T05:15:07.334Z,15.70
2019-01-30T05:16:07.344Z,11.90
2019-01-30T05:17:07.337Z,12.00
2019-01-30T05:18:07.343Z,14.90
2019-01-30T05:19:07.331Z,14.90
2019-01-30T05:20:09.621Z,13.00
2019-01-30T05:21:07.395Z,15.50
2019-01-30T05:22:07.334Z,12.30
2019-01-30T05:23:07.333Z,11.40
2019-01-30T05:24:07.334Z,12.40
2019-01-30T05:25:07.327Z,12.50
2019-01-30T05:26:07.349Z,14.70
2019-01-30T05:27:07.331Z,12.00
2019-01-30T05:28:07.331Z,14.20
2019-01-30T05:29:07.334Z,13.40
2019-01-30T05:30:07.335Z,14.00
2019-01-30T05:31:07.331Z,12.60
2019-01-30T05:32:07.330Z,12.40
2019-01-30T05:33:07.341Z,16.90
2019-01-30T05:34:07.320Z,13.80
2019-01-30T05:35:07.331Z,13.70
2019-01-30T05:36:07.321Z,13.10
2019-01-30T05:37:07.330Z,14.80
2019-01-30T05:38:07.324Z,13.50
2019-01-30T05:39:07.327Z,17.10
2019-01-30T05:40:07.339Z,12.80
2019-01-30T05:41:07.343Z,15.00
2019-01-30T05:42:07.328Z,15.10
2019-01-30T05:43:07.324Z,15.30
2019-01-30T05:44:07.331Z,12.30
2019-01-30T05:45:07.325Z,12.10
2019-01-30T05:46:07.327Z,13.60
2019-01-30T05:47:07.328Z,14.60
2019-01-30T05:48:07.321Z,12.10
2019-01-30T05:49:07.321Z,13.30
2019-01-30T05:50:07.325Z,15.50
2019-01-30T05:51:07.321Z,14.30
2019-01-30T05:52:07.321Z,16.00
2019-01-30T05:53:07.342Z,16.40
2019-01-30T05:54:07.327Z,14.70
2019-01-30T05:55:07.321Z,14.50
2019-01-30T05:56:07.337Z,15.20
2019-01-30T05:57:07.323Z,17.60
2019-01-30T05:58:07.324Z,15.40
2019-01-30T05:59:07.321Z,12.50
2019-01-30T06:00:07.502Z,13.40
2019-01-30T06:01:07.326Z,13.60
2019-01-30T06:02:12.222Z,14.30
2019-01-30T06:03:07.320Z,13.50
2019-01-30T06:04:07.321Z,15.50
2019-01-30T06:05:07.326Z,13.50
2019-01-30T06:06:07.321Z,15.10
2019-01-30T06:07:07.323Z,15.30
2019-01-30T06:09:07.316Z,14.60
2019-01-30T06:10:07.324Z,12.60
2019-01-30T06:11:07.320Z,13.50
2019-01-30T06:12:07.338Z,13.20
2019-01-30T06:13:07.323Z,15.50
2019-01-30T06:14:07.344Z,17.30
2019-01-30T06:15:07.311Z,13.80
2019-01-30T06:16:07.317Z,13.80
2019-01-30T06:17:09.616Z,12.80
2019-01-30T06:18:07.316Z,13.80
2019-01-30T06:19:07.305Z,13.30
2019-01-30T06:22:07.312Z,12.60
2019-01-30T06:23:07.312Z,14.30
2019-01-30T06:25:07.316Z,12.30
2019-01-30T06:26:07.313Z,13.50
2019-01-30T06:27:07.331Z,15.30
2019-01-30T06:28:07.314Z,12.40
2019-01-30T06:29:07.312Z,14.90
2019-01-30T06:30:07.307Z,12.90
2019-01-30T06:31:07.310Z,13.60
2019-01-30T06:33:07.306Z,14.30
2019-01-30T06:34:07.310Z,10.90
2019-01-30T06:35:07.304Z,15.40
2019-01-30T06:36:07.416Z,16.50
2019-01-30T06:37:07.333Z,11.70
2019-01-30T06:38:07.309Z,11.00
2019-01-30T06:39:07.312Z,15.10
2019-01-30T06:40:07.307Z,12.60
2019-01-30T06:41:07.321Z,12.70
2019-01-30T06:42:07.301Z,12.30
2019-01-30T06:43:07.308Z,12.10
2019-01-30T06:44:07.302Z,14.40
2019-01-30T06:45:07.307Z,13.70
2019-01-30T06:46:07.305Z,11.40
2019-01-30T06:47:07.330Z,12.60
2019-01-30T06:48:07.308Z,15.00
2019-01-30T06:49:07.308Z,12.40
2019-01-30T06:50:07.296Z,14.10
2019-01-30T06:51:07.347Z,11.50
2019-01-30T06:52:07.304Z,16.20
2019-01-30T06:53:07.310Z,12.60
2019-01-30T06:54:07.295Z,10.40
2019-01-30T06:55:07.305Z,11.90
2019-01-30T06:56:07.290Z,13.30
2019-01-30T06:57:07.299Z,13.00
2019-01-30T06:58:07.309Z,12.30
2019-01-30T07:00:07.306Z,12.00
2019-01-30T07:01:07.321Z,10.20
2019-01-30T07:02:07.301Z,12.20
2019-01-30T07:03:07.302Z,11.10
2019-01-30T07:04:07.306Z,12.80
2019-01-30T07:05:07.317Z,11.50
2019-01-30T07:06:07.884Z,13.30
2019-01-30T07:07:07.312Z,11.80
2019-01-30T07:08:07.309Z,11.00
2019-01-30T07:09:07.291Z,13.20
2019-01-30T07:10:07.300Z,10.80
2019-01-30T07:11:10.800Z,11.30
2019-01-30T07:12:07.291Z,10.60
2019-01-30T07:13:07.305Z,9.50
2019-01-30T07:14:07.293Z,12.70
2019-01-30T07:15:07.311Z,10.90
2019-01-30T07:16:07.295Z,13.60
2019-01-30T07:17:07.295Z,12.30
2019-01-30T07:18:07.341Z,11.90
2019-01-30T07:19:07.298Z,10.20
2019-01-30T07:20:07.311Z,9.50
2019-01-30T07:21:07.317Z,12.20
2019-01-30T07:22:07.287Z,12.30
2019-01-30T07:23:07.285Z,10.80
2019-01-30T07:24:07.295Z,15.30
2019-01-30T07:25:07.286Z,10.50
2019-01-30T07:26:07.305Z,13.50
2019-01-30T07:27:07.295Z,12.10
2019-01-30T07:28:07.301Z,13.50
2019-01-30T07:29:07.289Z,10.60
2019-01-30T07:30:07.286Z,9.70
2019-01-30T07:31:07.289Z,10.40
2019-01-30T07:32:07.299Z,10.00
2019-01-30T07:33:07.286Z,12.30
2019-01-30T07:34:07.306Z,11.00
2019-01-30T07:35:07.293Z,11.70
2019-01-30T07:36:07.288Z,11.70
2019-01-30T07:37:07.292Z,14.40
2019-01-30T07:38:07.286Z,9.10
2019-01-30T07:39:07.290Z,9.30
2019-01-30T07:40:07.300Z,10.40
2019-01-30T07:41:07.289Z,9.40
2019-01-30T07:42:07.293Z,10.40
2019-01-30T07:43:07.290Z,11.20
2019-01-30T07:44:07.305Z,10.40
2019-01-30T07:45:07.286Z,11.30
2019-01-30T07:46:07.296Z,9.60
2019-01-30T07:47:07.287Z,11.50
2019-01-30T07:48:07.291Z,9.70
2019-01-30T07:49:07.305Z,10.30
2019-01-30T07:50:07.305Z,10.40
2019-01-30T07:51:07.302Z,8.50
2019-01-30T07:52:07.289Z,9.20
2019-01-30T07:53:07.299Z,9.90
2019-01-30T07:54:07.281Z,10.80
2019-01-30T07:55:07.281Z,11.30
2019-01-30T07:56:07.328Z,9.70
2019-01-30T07:57:07.299Z,9.60
2019-01-30T07:58:07.291Z,10.50
2019-01-30T07:59:07.285Z,10.30
2019-01-30T08:00:07.314Z,9.90
2019-01-30T08:01:07.411Z,11.00
2019-01-30T08:02:07.898Z,10.50
2019-01-30T08:03:07.283Z,9.20
2019-01-30T08:04:07.289Z,14.70
2019-01-30T08:05:07.300Z,8.60
2019-01-30T08:06:07.429Z,9.90
2019-01-30T08:07:07.358Z,8.70
2019-01-30T08:08:07.283Z,10.20
2019-01-30T08:09:07.300Z,11.50
2019-01-30T08:10:07.299Z,9.60
2019-01-30T08:11:07.572Z,10.40
2019-01-30T08:12:07.303Z,12.40
2019-01-30T08:13:07.293Z,10.40
2019-01-30T08:14:07.294Z,9.50
2019-01-30T08:15:07.290Z,11.30
2019-01-30T08:16:07.297Z,9.50
2019-01-30T08:17:07.297Z,10.40
2019-01-30T08:18:07.293Z,9.80
2019-01-30T08:19:07.293Z,8.30
2019-01-30T08:20:07.298Z,7.90
2019-01-30T08:21:07.295Z,9.00
2019-01-30T08:22:07.296Z,7.70
2019-01-30T08:23:07.477Z,10.30
2019-01-30T08:24:07.500Z,9.20
2019-01-30T08:25:07.521Z,8.20
2019-01-30T08:26:07.424Z,10.30
2019-01-30T08:28:07.302Z,9.10
2019-01-30T08:29:07.785Z,7.80
2019-01-30T08:30:07.704Z,8.50
2019-01-30T08:31:07.391Z,9.90
2019-01-30T08:32:07.604Z,11.20
2019-01-30T08:33:07.431Z,9.10
2019-01-30T08:34:07.305Z,9.00
2019-01-30T08:35:07.298Z,9.90
2019-01-30T08:36:07.307Z,8.20
2019-01-30T08:37:07.307Z,9.30
2019-01-30T08:38:07.306Z,8.90
2019-01-30T08:39:07.312Z,10.50
2019-01-30T08:40:07.305Z,10.70
2019-01-30T08:41:07.309Z,9.70
2019-01-30T08:43:07.322Z,8.50
2019-01-30T08:44:07.327Z,6.80
2019-01-30T08:46:07.315Z,7.10
2019-01-30T08:47:07.330Z,8.20
2019-01-30T08:48:07.322Z,7.90
2019-01-30T08:49:07.334Z,10.00
2019-01-30T08:50:07.322Z,9.20
2019-01-30T08:51:07.316Z,6.80
2019-01-30T08:52:07.322Z,8.90
2019-01-30T08:53:07.316Z,8.00
2019-01-30T08:54:07.324Z,9.10
2019-01-30T08:55:07.323Z,11.60
2019-01-30T08:56:07.327Z,8.00
2019-01-30T08:57:07.330Z,8.40
2019-01-30T08:58:07.341Z,10.80
2019-01-30T08:59:07.338Z,8.30
2019-01-30T09:00:07.335Z,7.00
2019-01-30T09:01:07.341Z,8.60
2019-01-30T09:02:07.368Z,9.20
2019-01-30T09:03:14.429Z,8.50
2019-01-30T09:04:07.338Z,9.60
2019-01-30T09:05:07.344Z,8.70
2019-01-30T09:06:07.340Z,9.60
2019-01-30T09:07:07.362Z,7.10
2019-01-30T09:08:08.911Z,9.60
2019-01-30T09:09:07.344Z,11.00
2019-01-30T09:10:07.366Z,9.00
2019-01-30T09:11:07.359Z,9.60
2019-01-30T09:12:07.356Z,7.00
2019-01-30T09:13:07.350Z,9.90
2019-01-30T09:14:07.342Z,7.80
2019-01-30T09:15:07.351Z,7.50
2019-01-30T09:16:07.348Z,7.40
2019-01-30T09:17:08.779Z,8.90
2019-01-30T09:18:07.360Z,9.00
2019-01-30T09:19:07.365Z,9.80
2019-01-30T09:20:07.367Z,10.00
2019-01-30T09:21:07.372Z,6.50
2019-01-30T09:22:07.378Z,10.20
2019-01-30T09:23:07.376Z,10.40
2019-01-30T09:24:07.373Z,10.00
2019-01-30T09:25:07.377Z,9.90
2019-01-30T09:26:07.373Z,8.80
2019-01-30T09:27:07.368Z,9.90
2019-01-30T09:28:07.370Z,8.60
2019-01-30T09:29:07.380Z,10.10
2019-01-30T09:30:07.376Z,10.30
2019-01-30T09:32:07.388Z,8.00
2019-01-30T09:33:07.421Z,8.90
2019-01-30T09:34:07.395Z,9.50
2019-01-30T09:35:07.384Z,8.80
2019-01-30T09:36:07.401Z,8.30
2019-01-30T09:37:07.427Z,8.90
2019-01-30T09:38:07.419Z,7.20
2019-01-30T09:39:07.417Z,10.80
2019-01-30T09:40:07.427Z,11.40
2019-01-30T09:41:07.421Z,9.60
2019-01-30T09:42:07.398Z,9.10
2019-01-30T09:43:07.414Z,9.60
2019-01-30T09:44:07.424Z,8.00
2019-01-30T09:45:09.881Z,10.90
2019-01-30T09:46:07.403Z,12.20
2019-01-30T09:47:07.418Z,8.00
2019-01-30T09:48:07.416Z,9.00
2019-01-30T09:49:07.430Z,10.60
2019-01-30T09:50:07.457Z,9.50
2019-01-30T09:51:07.407Z,8.00
2019-01-30T09:52:07.410Z,9.70
2019-01-30T09:53:07.414Z,9.30
2019-01-30T09:54:07.418Z,11.30
2019-01-30T09:55:07.445Z,8.20
2019-01-30T09:56:07.481Z,10.00
2019-01-30T09:57:07.429Z,10.00
2019-01-30T09:58:07.446Z,9.70
2019-01-30T09:59:07.437Z,8.30
2019-01-30T10:01:07.439Z,8.60
2019-01-30T10:02:07.440Z,9.30
2019-01-30T10:03:07.452Z,10.30
2019-01-30T10:04:07.453Z,7.10
2019-01-30T10:05:07.448Z,7.00
2019-01-30T10:06:07.452Z,9.40
2019-01-30T10:07:07.453Z,7.90
2019-01-30T10:08:07.453Z,10.20
2019-01-30T10:09:07.453Z,8.60
2019-01-30T10:10:07.450Z,10.00
2019-01-30T10:11:07.466Z,8.70
2019-01-30T10:12:07.580Z,7.00
2019-01-30T10:13:07.469Z,7.00
2019-01-30T10:14:07.459Z,7.00
2019-01-30T10:15:07.466Z,7.50
2019-01-30T10:16:07.459Z,8.90
2019-01-30T10:17:07.468Z,9.50
2019-01-30T10:18:07.479Z,9.10
2019-01-30T10:19:07.475Z,9.00
2019-01-30T10:20:07.479Z,9.20
2019-01-30T10:21:07.490Z,11.00
2019-01-30T10:22:07.476Z,7.80
2019-01-30T10:23:07.485Z,8.80
2019-01-30T10:24:07.501Z,11.40
2019-01-30T10:25:07.487Z,8.40
2019-01-30T10:26:07.478Z,9.90
2019-01-30T10:27:07.872Z,8.90
2019-01-30T10:28:16.206Z,9.30
2019-01-30T10:29:07.494Z,7.40
2019-01-30T10:30:07.490Z,6.40
2019-01-30T10:31:07.501Z,8.40
2019-01-30T10:32:07.488Z,9.90
2019-01-30T10:33:07.494Z,8.50
2019-01-30T10:34:07.493Z,8.80
2019-01-30T10:35:07.507Z,9.60
2019-01-30T10:36:07.501Z,8.70
2019-01-30T10:37:07.513Z,11.40
2019-01-30T10:38:07.649Z,8.10
2019-01-30T10:39:07.503Z,7.50
2019-01-30T10:40:07.521Z,9.80
2019-01-30T10:41:07.517Z,9.70
2019-01-30T10:42:07.507Z,8.20
2019-01-30T10:43:07.527Z,8.30
2019-01-30T10:44:07.515Z,8.00
2019-01-30T10:45:07.517Z,9.40
2019-01-30T10:46:07.516Z,8.50
2019-01-30T10:47:07.530Z,9.20
2019-01-30T10:48:07.523Z,8.90
2019-01-30T10:49:07.523Z,8.00
2019-01-30T10:50:07.517Z,11.10
2019-01-30T10:51:07.582Z,11.30
2019-01-30T10:52:07.526Z,7.70
2019-01-30T10:53:07.531Z,11.00
2019-01-30T10:54:07.523Z,8.80
2019-01-30T10:55:07.542Z,10.00
2019-01-30T10:56:07.535Z,9.30
2019-01-30T10:57:07.527Z,8.90
2019-01-30T10:58:07.535Z,12.00
2019-01-30T10:59:07.568Z,10.20
2019-01-30T11:00:07.532Z,10.70
2019-01-30T11:01:07.540Z,13.00
2019-01-30T11:02:07.544Z,9.90
2019-01-30T11:03:07.546Z,8.30
2019-01-30T11:04:07.548Z,10.70
2019-01-30T11:05:07.548Z,10.10
2019-01-30T11:06:07.549Z,9.60
2019-01-30T11:07:07.549Z,11.00
2019-01-30T11:08:07.554Z,9.50
2019-01-30T11:09:07.571Z,10.50
2019-01-30T11:10:07.548Z,10.00
2019-01-30T11:11:08.360Z,9.60
2019-01-30T11:12:07.558Z,11.40
2019-01-30T11:13:07.559Z,10.60
2019-01-30T11:14:07.558Z,10.80
2019-01-30T11:15:07.584Z,11.40
2019-01-30T11:16:07.556Z,13.00
2019-01-30T11:17:08.687Z,13.30
2019-01-30T11:18:07.621Z,14.30
2019-01-30T11:19:07.560Z,12.50
2019-01-30T11:20:07.570Z,13.90
2019-01-30T11:21:07.567Z,12.90
2019-01-30T11:22:07.563Z,16.10
2019-01-30T11:23:07.569Z,13.60
2019-01-30T11:24:07.567Z,12.00
2019-01-30T11:25:07.570Z,15.50
2019-01-30T11:26:07.570Z,14.10
2019-01-30T11:27:07.566Z,14.50
2019-01-30T11:28:07.568Z,17.00
2019-01-30T11:29:07.570Z,16.40
2019-01-30T11:30:07.580Z,12.80
2019-01-30T11:31:07.582Z,14.50
2019-01-30T11:32:07.567Z,17.50
2019-01-30T11:33:07.574Z,14.90
2019-01-30T11:34:08.064Z,16.70
2019-01-30T11:35:07.572Z,14.40
2019-01-30T11:36:07.572Z,13.70
2019-01-30T11:37:07.593Z,17.40
2019-01-30T11:38:08.982Z,15.20
2019-01-30T11:39:07.579Z,16.50
2019-01-30T11:40:07.580Z,14.00
2019-01-30T11:41:07.576Z,13.70
2019-01-30T11:42:07.586Z,13.60
2019-01-30T11:43:07.580Z,15.80
2019-01-30T11:44:07.584Z,13.70
2019-01-30T11:45:07.584Z,14.60
2019-01-30T11:46:07.578Z,14.10
2019-01-30T11:47:07.587Z,14.60
2019-01-30T11:48:07.582Z,13.90
2019-01-30T11:49:07.641Z,13.40
2019-01-30T11:50:07.586Z,17.10
2019-01-30T11:51:07.623Z,13.60
2019-01-30T11:52:07.598Z,13.60
2019-01-30T11:53:07.602Z,16.10
2019-01-30T11:54:07.593Z,14.30
2019-01-30T11:55:07.591Z,12.20
2019-01-30T11:56:07.600Z,13.20
2019-01-30T11:57:07.598Z,13.50
2019-01-30T11:58:07.596Z,13.70
2019-01-30T11:59:07.602Z,15.20
2019-01-30T12:00:07.613Z,12.40
2019-01-30T12:01:07.609Z,14.60
2019-01-30T12:02:07.596Z,12.30
2019-01-30T12:03:07.611Z,11.70
2019-01-30T12:04:17.485Z,13.70
2019-01-30T12:05:07.604Z,14.60
2019-01-30T12:06:07.596Z,16.10
2019-01-30T12:07:07.600Z,12.60
2019-01-30T12:08:07.604Z,13.10
2019-01-30T12:09:07.637Z,12.70
2019-01-30T12:10:07.604Z,17.00
2019-01-30T12:11:07.606Z,12.80
2019-01-30T12:12:07.622Z,14.70
2019-01-30T12:13:07.611Z,13.80
2019-01-30T12:14:07.702Z,14.80
2019-01-30T12:15:07.625Z,16.90
2019-01-30T12:16:07.613Z,12.90
2019-01-30T12:17:07.618Z,15.60
2019-01-30T12:18:07.613Z,12.10
2019-01-30T12:19:07.628Z,11.80
2019-01-30T12:20:07.625Z,13.50
2019-01-30T12:21:07.622Z,13.50
2019-01-30T12:22:07.642Z,16.60
2019-01-30T12:24:07.622Z,14.20
2019-01-30T12:25:07.661Z,14.90
2019-01-30T12:26:07.630Z,13.80
2019-01-30T12:27:07.630Z,13.30
2019-01-30T12:29:07.635Z,13.60
2019-01-30T12:30:07.635Z,12.50
2019-01-30T12:31:07.647Z,12.90
2019-01-30T12:32:07.633Z,13.50
2019-01-30T12:33:07.638Z,14.10
2019-01-30T12:34:07.646Z,12.80
2019-01-30T12:35:07.633Z,13.80
2019-01-30T12:36:07.631Z,11.90
2019-01-30T12:37:07.638Z,16.20
2019-01-30T12:38:07.649Z,11.60
2019-01-30T12:39:07.715Z,14.40
2019-01-30T12:40:07.663Z,13.70
2019-01-30T12:41:07.645Z,14.80
2019-01-30T12:42:07.645Z,13.10
2019-01-30T12:43:07.656Z,13.30
2019-01-30T12:44:07.692Z,16.10
2019-01-30T12:45:07.650Z,11.40
2019-01-30T12:46:07.666Z,14.00
2019-01-30T12:47:07.651Z,14.40
2019-01-30T12:48:10.324Z,14.70
2019-01-30T12:49:07.669Z,12.40
2019-01-30T12:50:07.671Z,12.10
2019-01-30T12:51:07.651Z,14.60
2019-01-30T12:52:07.659Z,18.80
2019-01-30T12:53:07.655Z,16.10
2019-01-30T12:54:07.654Z,14.40
2019-01-30T12:55:07.661Z,13.50
2019-01-30T12:56:07.671Z,13.90
2019-01-30T12:57:07.761Z,11.10
2019-01-30T12:58:07.658Z,11.30
2019-01-30T12:59:07.819Z,12.50
2019-01-30T13:00:07.687Z,11.40
2019-01-30T13:01:07.669Z,10.60
2019-01-30T13:02:07.659Z,14.10
2019-01-30T13:03:07.667Z,13.40
2019-01-30T13:04:07.676Z,13.50
2019-01-30T13:05:07.667Z,12.30
2019-01-30T13:06:07.667Z,12.00
2019-01-30T13:07:07.680Z,13.30
2019-01-30T13:08:07.671Z,12.30
2019-01-30T13:09:07.675Z,10.10
2019-01-30T13:10:07.842Z,12.00
2019-01-30T13:11:07.688Z,11.20
2019-01-30T13:12:07.672Z,14.20